Time;durP1;ratioP1;P1;durP2;ratioP2;P2;SDS_P1;SDS_P2;PMS_P1;PMS_P2;Temp;Humidity;BMP_temperature;BMP_pressure;BME280_temperature;BME280_humidity;BME280_pressure;Samples;Min_cycle;Max_cycle;Signal;HPM_P1;HPM_P2
2022/09/23 00:00:34;;;;;;;9.90;7.10;;;9.80;99.90;;;;;;4964924;28;20039;-75
2022/09/23 00:03:00;;;;;;;11.15;7.18;;;9.80;99.90;;;;;;4964734;28;20034;-75
2022/09/23 00:05:29;;;;;;;10.82;6.68;;;9.80;99.90;;;;;;4966655;28;20022;-75
2022/09/23 00:07:55;;;;;;;14.27;7.80;;;9.80;99.90;;;;;;4964276;28;20029;-76
2022/09/23 00:10:23;;;;;;;16.48;8.48;;;9.70;99.90;;;;;;4965801;28;20055;-76
2022/09/23 00:12:49;;;;;;;16.58;8.60;;;9.70;99.90;;;;;;4965473;28;20499;-76
2022/09/23 00:15:15;;;;;;;12.63;8.05;;;9.70;99.90;;;;;;4964695;28;20042;-77
2022/09/23 00:17:41;;;;;;;13.13;7.88;;;9.70;99.90;;;;;;4965990;28;20058;-76
2022/09/23 00:20:08;;;;;;;11.98;8.20;;;9.70;99.90;;;;;;4961082;28;20163;-76
2022/09/23 00:22:35;;;;;;;15.23;9.05;;;9.70;99.90;;;;;;4965099;28;20023;-76
2022/09/23 00:25:01;;;;;;;14.05;8.80;;;9.70;99.90;;;;;;4968256;28;20035;-76
2022/09/23 00:27:28;;;;;;;14.38;9.00;;;9.70;99.90;;;;;;4964608;28;20054;-75
2022/09/23 00:29:54;;;;;;;13.60;8.68;;;9.60;99.90;;;;;;4966953;28;20031;-76
2022/09/23 00:32:19;;;;;;;17.15;9.38;;;9.70;99.90;;;;;;4964687;28;20439;-76
2022/09/23 00:34:46;;;;;;;14.27;8.68;;;9.60;99.90;;;;;;4965325;28;20042;-76
2022/09/23 00:37:13;;;;;;;12.77;9.00;;;9.70;99.90;;;;;;4963980;28;20117;-76
2022/09/23 00:39:38;;;;;;;13.82;8.52;;;9.60;99.90;;;;;;4967805;28;20563;-76
2022/09/23 00:42:05;;;;;;;13.15;8.55;;;9.60;99.90;;;;;;4968037;28;20022;-77
2022/09/23 00:44:42;;;;;;;14.10;8.65;;;9.60;99.90;;;;;;4964110;28;20430;-76
2022/09/23 00:47:13;;;;;;;13.00;8.77;;;9.60;99.90;;;;;;4965333;28;20110;-76
2022/09/23 00:49:40;;;;;;;15.10;9.10;;;9.60;99.90;;;;;;4966224;28;20023;-75
2022/09/23 00:52:12;;;;;;;13.77;8.88;;;9.50;99.90;;;;;;4983991;28;20101;-76
2022/09/23 00:54:37;;;;;;;14.25;9.38;;;9.60;99.90;;;;;;4967156;28;20038;-75
2022/09/23 00:57:04;;;;;;;16.02;8.75;;;9.50;99.90;;;;;;4964728;28;20399;-76
2022/09/23 00:59:31;;;;;;;13.43;8.95;;;9.50;99.90;;;;;;4965684;28;20084;-75
2022/09/23 01:01:58;;;;;;;16.42;9.80;;;9.50;99.90;;;;;;4961641;28;20031;-76
2022/09/23 01:04:26;;;;;;;15.82;8.80;;;9.50;99.90;;;;;;4966923;28;20023;-76
2022/09/23 01:06:52;;;;;;;12.90;9.38;;;9.50;99.90;;;;;;4965149;28;20034;-75
2022/09/23 01:09:18;;;;;;;15.10;9.82;;;9.40;99.90;;;;;;4964998;28;20031;-76
2022/09/23 01:11:59;;;;;;;16.42;9.27;;;9.40;99.90;;;;;;4968000;28;20030;-76
2022/09/23 01:15:08;;;;;;;12.80;9.40;;;9.40;99.90;;;;;;4969324;28;20039;-76
2022/09/23 01:17:49;;;;;;;15.70;9.13;;;9.40;99.90;;;;;;4967840;28;20023;-76
2022/09/23 01:20:58;;;;;;;15.45;9.52;;;9.40;99.90;;;;;;4967574;28;20046;-76
2022/09/23 01:24:01;;;;;;;15.15;9.90;;;9.40;99.90;;;;;;4966938;28;20039;-76
2022/09/23 01:26:40;;;;;;;;;;;9.30;99.90;;;;;;4968892;28;20027;-75
2022/09/23 01:29:36;;;;;;;11.52;8.60;;;9.30;99.90;;;;;;4969074;28;19917;-76
2022/09/23 01:32:24;;;;;;;16.27;8.85;;;9.20;99.90;;;;;;4969438;28;20033;-77
2022/09/23 01:35:06;;;;;;;15.23;9.50;;;9.20;99.90;;;;;;4969688;28;20695;-76
2022/09/23 01:37:54;;;;;;;13.68;9.65;;;9.20;99.90;;;;;;4966172;28;20034;-76
2022/09/23 01:40:23;;;;;;;18.52;9.43;;;9.20;99.90;;;;;;4969523;28;20037;-76
2022/09/23 01:43:18;;;;;;;13.68;9.57;;;9.20;99.90;;;;;;4967868;28;20101;-76
2022/09/23 01:45:46;;;;;;;12.02;8.82;;;9.20;99.90;;;;;;4948876;28;20045;-76
2022/09/23 01:48:39;;;;;;;15.23;9.57;;;9.10;99.90;;;;;;4965863;28;20031;-76
2022/09/23 01:51:12;;;;;;;14.98;9.57;;;9.10;99.90;;;;;;4968339;28;20031;-76
2022/09/23 01:53:47;;;;;;;14.90;10.13;;;9.10;99.90;;;;;;4969777;28;20434;-76
2022/09/23 01:56:29;;;;;;;16.10;10.00;;;9.00;99.90;;;;;;4968784;28;20038;-76
2022/09/23 01:59:10;;;;;;;14.10;10.73;;;9.00;99.90;;;;;;4969994;28;20084;-75
2022/09/23 02:01:55;;;;;;;17.63;10.35;;;8.90;99.90;;;;;;4970266;28;20027;-76
2022/09/23 02:04:24;;;;;;;16.15;10.43;;;8.90;99.90;;;;;;4968636;28;20384;-76
2022/09/23 02:07:05;;;;;;;15.02;10.07;;;8.90;99.90;;;;;;4969591;28;20023;-76
2022/09/23 02:09:39;;;;;;;16.63;10.35;;;8.90;99.90;;;;;;4966688;28;20038;-76
2022/09/23 02:12:11;;;;;;;15.70;9.98;;;8.90;99.90;;;;;;4967249;28;20504;-76
2022/09/23 02:14:58;;;;;;;16.50;9.70;;;8.90;99.90;;;;;;4969857;28;20035;-76
2022/09/23 02:17:35;;;;;;;16.80;11.27;;;8.90;99.90;;;;;;4967003;28;20099;-76
2022/09/23 02:20:05;;;;;;;15.60;9.95;;;8.90;99.90;;;;;;4968846;28;21881;-76
2022/09/23 02:22:48;;;;;;;16.15;10.70;;;9.00;99.90;;;;;;4966827;28;20030;-77
2022/09/23 02:25:16;;;;;;;15.32;10.43;;;9.00;99.90;;;;;;4966842;28;20426;-76
2022/09/23 02:27:52;;;;;;;14.70;10.30;;;9.00;99.90;;;;;;4967833;28;20458;-76
2022/09/23 02:30:25;;;;;;;14.35;10.48;;;9.00;99.90;;;;;;4970310;28;20058;-76
2022/09/23 02:33:05;;;;;;;16.05;10.20;;;9.00;99.90;;;;;;4969859;28;20034;-76
2022/09/23 02:35:42;;;;;;;13.88;10.02;;;9.00;99.90;;;;;;4967324;28;20034;-76
2022/09/23 02:38:14;;;;;;;15.75;11.13;;;9.10;99.90;;;;;;4968465;28;20463;-76
2022/09/23 02:40:56;;;;;;;19.20;11.43;;;9.10;99.90;;;;;;4966600;28;20026;-76
2022/09/23 02:43:32;;;;;;;14.95;10.25;;;9.10;99.90;;;;;;4969805;28;20101;-76
2022/09/23 02:45:59;;;;;;;13.60;10.75;;;9.10;99.90;;;;;;4966986;28;20034;-75
2022/09/23 02:48:31;;;;;;;16.80;11.00;;;9.00;99.90;;;;;;4983509;28;20038;-76
2022/09/23 02:51:01;;;;;;;16.90;11.27;;;9.00;99.90;;;;;;4964232;28;20034;-76
2022/09/23 02:53:27;;;;;;;17.55;10.57;;;9.00;99.90;;;;;;4964864;28;20031;-76
2022/09/23 02:55:53;;;;;;;18.02;10.63;;;9.00;99.90;;;;;;4963099;28;20483;-75
2022/09/23 02:58:18;;;;;;;14.75;9.93;;;9.00;99.90;;;;;;4969430;28;20030;-75
2022/09/23 03:01:17;;;;;;;14.13;10.52;;;9.10;99.90;;;;;;4966229;28;20034;-76
2022/09/23 03:03:52;;;;;;;21.42;11.25;;;9.10;99.90;;;;;;4967675;28;20114;-76
2022/09/23 03:06:41;;;;;;;16.67;11.07;;;9.00;99.90;;;;;;4964089;28;20034;-76
2022/09/23 03:09:18;;;;;;;18.15;11.35;;;9.00;99.90;;;;;;4967415;28;20077;-75
2022/09/23 03:11:50;;;;;;;16.75;10.88;;;9.00;99.90;;;;;;4963998;28;20026;-75
2022/09/23 03:14:19;;;;;;;19.20;10.48;;;8.90;99.90;;;;;;4961691;28;20038;-76
2022/09/23 03:16:57;;;;;;;18.58;10.93;;;9.00;99.90;;;;;;4967428;28;20023;-77
2022/09/23 03:19:26;;;;;;;17.00;10.85;;;8.90;99.90;;;;;;4967148;28;20037;-75
2022/09/23 03:22:11;;;;;;;17.73;11.13;;;8.90;99.90;;;;;;4967902;28;20030;-75
2022/09/23 03:24:39;;;;;;;17.63;9.90;;;9.00;99.90;;;;;;4965421;28;20454;-76
2022/09/23 03:27:12;;;;;;;14.23;10.13;;;8.90;99.90;;;;;;4968084;28;20031;-76
2022/09/23 03:29:46;;;;;;;13.02;9.20;;;8.90;99.90;;;;;;4963858;28;20042;-75
2022/09/23 03:32:14;;;;;;;15.68;10.13;;;8.90;99.90;;;;;;4966609;28;20030;-75
2022/09/23 03:34:43;;;;;;;16.88;10.32;;;8.90;99.90;;;;;;4965289;28;20096;-75
2022/09/23 03:37:32;;;;;;;16.42;9.93;;;8.90;99.90;;;;;;4965293;28;20031;-77
2022/09/23 03:40:29;;;;;;;14.85;10.02;;;8.90;99.90;;;;;;4967627;28;20070;-76
2022/09/23 03:42:56;;;;;;;15.38;10.32;;;8.90;99.90;;;;;;4967316;28;20122;-75
2022/09/23 03:45:26;;;;;;;17.67;11.00;;;8.90;99.90;;;;;;4964190;28;20151;-77
2022/09/23 03:47:51;;;;;;;18.63;9.73;;;8.90;99.90;;;;;;4967458;28;20484;-75
2022/09/23 03:50:17;;;;;;;14.00;9.85;;;8.80;99.90;;;;;;4968012;28;20107;-76
2022/09/23 03:52:43;;;;;;;12.85;9.38;;;8.80;99.90;;;;;;4968371;28;20038;-75
2022/09/23 03:55:09;;;;;;;13.73;9.70;;;8.80;99.90;;;;;;4967435;28;20039;-76
2022/09/23 03:57:36;;;;;;;18.10;11.00;;;8.80;99.90;;;;;;4967177;28;20123;-75
2022/09/23 04:00:05;;;;;;;14.25;9.70;;;8.90;99.90;;;;;;4964656;28;20477;-76
2022/09/23 04:02:31;;;;;;;15.38;10.07;;;8.90;99.90;;;;;;4965386;28;20044;-77
2022/09/23 04:04:56;;;;;;;14.15;9.20;;;8.90;99.90;;;;;;4967175;28;20086;-76
2022/09/23 04:07:22;;;;;;;15.02;10.05;;;8.90;99.90;;;;;;4965437;28;20022;-76
2022/09/23 04:09:47;;;;;;;14.02;9.68;;;8.90;99.90;;;;;;4967294;28;20030;-76
2022/09/23 04:12:14;;;;;;;13.20;10.25;;;8.90;99.90;;;;;;4963405;28;20034;-77
2022/09/23 04:14:41;;;;;;;15.77;10.23;;;8.90;99.90;;;;;;4966584;28;20125;-76
2022/09/23 04:17:06;;;;;;;14.55;9.77;;;9.00;99.90;;;;;;4966256;28;20471;-76
2022/09/23 04:19:32;;;;;;;12.23;9.07;;;9.00;99.90;;;;;;4966332;28;20038;-77
2022/09/23 04:21:58;;;;;;;13.45;9.50;;;9.00;99.90;;;;;;4967228;28;20078;-76
2022/09/23 04:24:23;;;;;;;11.80;8.75;;;9.00;99.90;;;;;;4965542;28;20110;-76
2022/09/23 04:26:51;;;;;;;12.77;8.63;;;9.00;99.90;;;;;;4967461;28;20069;-75
2022/09/23 04:29:17;;;;;;;12.20;8.70;;;9.00;99.90;;;;;;4965677;28;20062;-77
2022/09/23 04:31:42;;;;;;;13.45;9.38;;;9.10;99.90;;;;;;4966713;28;20039;-76
2022/09/23 04:34:08;;;;;;;13.38;9.90;;;9.00;99.90;;;;;;4966284;28;20145;-75
2022/09/23 04:36:34;;;;;;;17.23;9.18;;;9.10;99.90;;;;;;4963602;28;20034;-76
2022/09/23 04:39:00;;;;;;;14.85;9.63;;;9.00;99.90;;;;;;4966199;28;20038;-76
2022/09/23 04:41:26;;;;;;;13.10;8.73;;;9.10;99.90;;;;;;4966622;28;20834;-76
2022/09/23 04:43:52;;;;;;;12.82;9.35;;;9.10;99.90;;;;;;4981305;28;20188;-76
2022/09/23 04:46:18;;;;;;;12.50;9.38;;;9.10;99.90;;;;;;4964330;28;20030;-76
2022/09/23 04:48:43;;;;;;;14.27;9.35;;;9.10;99.90;;;;;;4985995;28;20057;-77
2022/09/23 04:51:12;;;;;;;15.65;9.40;;;9.10;99.90;;;;;;4969733;28;20093;-77
2022/09/23 04:53:40;;;;;;;12.82;9.20;;;9.10;99.90;;;;;;4965085;28;20548;-76
2022/09/23 04:56:13;;;;;;;11.60;8.73;;;9.10;99.90;;;;;;4980591;28;20053;-76
2022/09/23 04:58:40;;;;;;;18.75;9.35;;;9.10;99.90;;;;;;4957633;28;20110;-76
2022/09/23 05:01:14;;;;;;;14.48;8.18;;;9.10;99.90;;;;;;4965915;28;20031;-76
2022/09/23 05:03:40;;;;;;;13.95;8.65;;;9.10;99.90;;;;;;4962097;28;20050;-76
2022/09/23 05:06:06;;;;;;;17.67;9.02;;;9.10;99.90;;;;;;4963888;28;20027;-76
2022/09/23 05:08:32;;;;;;;16.95;8.43;;;9.10;99.90;;;;;;4962390;28;20117;-76
2022/09/23 05:10:59;;;;;;;14.38;8.80;;;9.10;99.90;;;;;;4964434;28;20035;-77
2022/09/23 05:13:25;;;;;;;18.52;8.95;;;9.10;99.90;;;;;;4964119;28;20027;-77
2022/09/23 05:15:57;;;;;;;13.15;8.65;;;9.10;99.90;;;;;;4963544;28;20035;-76
2022/09/23 05:18:23;;;;;;;;;;;9.20;99.90;;;;;;4962346;28;20118;-76
2022/09/23 05:20:53;;;;;;;13.38;8.05;;;9.20;99.90;;;;;;4963724;28;21693;-76
2022/09/23 05:23:18;;;;;;;11.85;8.48;;;9.20;99.90;;;;;;4963350;28;20034;-76
2022/09/23 05:25:44;;;;;;;10.98;8.43;;;9.20;99.90;;;;;;4964431;28;20038;-77
2022/09/23 05:28:10;;;;;;;14.35;8.30;;;9.20;99.90;;;;;;4964850;28;20031;-77
2022/09/23 05:30:35;;;;;;;15.23;9.15;;;9.30;99.90;;;;;;4962697;28;20033;-76
2022/09/23 05:33:01;;;;;;;14.95;8.40;;;9.20;99.90;;;;;;4981654;28;20502;-76
2022/09/23 05:35:27;;;;;;;14.15;8.55;;;9.20;99.90;;;;;;4962955;28;20054;-77
2022/09/23 05:37:52;;;;;;;10.85;7.47;;;9.20;99.90;;;;;;4963608;28;20034;-76
2022/09/23 05:40:18;;;;;;;12.98;8.10;;;9.20;99.90;;;;;;4966071;28;20106;-77
2022/09/23 05:42:43;;;;;;;12.80;8.25;;;9.30;99.90;;;;;;4968911;28;20043;-76
2022/09/23 05:45:09;;;;;;;14.38;8.73;;;9.20;99.90;;;;;;4966945;28;20106;-77
2022/09/23 05:47:35;;;;;;;17.65;8.88;;;9.30;99.90;;;;;;4964541;28;20026;-76
2022/09/23 05:50:00;;;;;;;11.10;8.35;;;9.30;99.90;;;;;;4965673;28;20041;-76
2022/09/23 05:52:26;;;;;;;11.52;7.82;;;9.30;99.90;;;;;;4969571;28;20390;-77
2022/09/23 05:54:52;;;;;;;11.07;7.90;;;9.30;99.90;;;;;;4964769;28;20051;-76
2022/09/23 05:57:18;;;;;;;16.48;7.30;;;9.40;99.90;;;;;;4967476;28;20498;-76
2022/09/23 05:59:46;;;;;;;17.85;8.98;;;9.40;99.90;;;;;;4962210;28;20027;-77
2022/09/23 06:02:12;;;;;;;13.55;8.27;;;9.40;99.90;;;;;;4966205;28;20030;-79
2022/09/23 06:04:37;;;;;;;12.63;9.25;;;9.50;99.90;;;;;;4970703;28;20034;-76
2022/09/23 06:07:03;;;;;;;14.88;8.57;;;9.50;99.90;;;;;;4970694;28;20119;-76
2022/09/23 06:09:28;;;;;;;13.65;9.00;;;9.50;99.90;;;;;;4962604;28;20208;-77
2022/09/23 06:11:54;;;;;;;16.20;9.73;;;9.60;99.90;;;;;;4967202;28;20107;-77
2022/09/23 06:14:20;;;;;;;15.05;9.15;;;9.60;99.90;;;;;;4967152;28;20046;-76
2022/09/23 06:16:45;;;;;;;14.30;9.32;;;9.60;99.90;;;;;;4965954;28;20019;-76
2022/09/23 06:19:11;;;;;;;12.93;9.18;;;9.60;99.90;;;;;;4966541;28;20035;-77
2022/09/23 06:21:39;;;;;;;13.30;8.85;;;9.70;99.90;;;;;;4967181;28;20094;-76
2022/09/23 06:24:06;;;;;;;10.98;8.38;;;9.70;99.90;;;;;;4967313;28;20037;-76
2022/09/23 06:26:33;;;;;;;13.73;9.02;;;9.80;99.90;;;;;;4964150;28;20035;-76
2022/09/23 06:29:01;;;;;;;11.93;8.57;;;9.80;99.90;;;;;;4968645;28;20109;-76
2022/09/23 06:31:27;;;;;;;12.32;8.48;;;9.80;99.90;;;;;;4964065;28;20209;-76
2022/09/23 06:33:53;;;;;;;13.52;7.85;;;9.90;99.90;;;;;;4965799;28;20053;-75
2022/09/23 06:36:19;;;;;;;12.68;8.40;;;9.90;99.90;;;;;;4963763;28;20047;-76
2022/09/23 06:38:47;;;;;;;10.68;8.05;;;9.90;99.90;;;;;;4960144;28;20073;-76
2022/09/23 06:41:12;;;;;;;12.93;7.75;;;10.00;99.90;;;;;;4963826;28;20042;-76
2022/09/23 06:43:38;;;;;;;10.18;8.38;;;10.00;99.90;;;;;;4961023;28;20390;-76
2022/09/23 06:46:06;;;;;;;11.23;8.00;;;10.10;99.90;;;;;;4968655;28;20494;-76
2022/09/23 06:48:35;;;;;;;11.43;8.27;;;10.10;99.90;;;;;;4969227;28;20023;-76
2022/09/23 06:51:03;;;;;;;10.27;7.68;;;10.10;99.90;;;;;;4965601;28;20046;-76
2022/09/23 06:53:32;;;;;;;12.05;8.48;;;10.10;99.90;;;;;;4967921;28;20039;-76
2022/09/23 06:56:05;;;;;;;10.43;7.95;;;10.10;99.90;;;;;;4969060;28;20045;-75
2022/09/23 06:58:33;;;;;;;13.15;8.77;;;10.20;99.90;;;;;;4968272;28;20022;-76
2022/09/23 07:01:04;;;;;;;15.10;9.60;;;10.20;99.90;;;;;;4957044;28;20026;-76
2022/09/23 07:03:30;;;;;;;12.48;7.95;;;10.30;99.90;;;;;;4958379;28;20031;-76
2022/09/23 07:05:57;;;;;;;14.57;7.63;;;10.30;99.90;;;;;;4966358;28;20023;-76
2022/09/23 07:08:25;;;;;;;12.32;8.75;;;10.30;99.90;;;;;;4971465;28;20055;-76
2022/09/23 07:10:56;;;;;;;12.95;8.77;;;10.40;99.90;;;;;;4971385;28;20037;-76
2022/09/23 07:13:21;;;;;;;11.70;8.27;;;10.30;99.90;;;;;;4971121;28;20031;-76
2022/09/23 07:15:50;;;;;;;12.55;7.97;;;10.40;99.90;;;;;;4973233;28;20035;-76
2022/09/23 07:18:16;;;;;;;15.45;8.15;;;10.40;99.90;;;;;;4972851;28;20023;-76
2022/09/23 07:20:42;;;;;;;16.77;8.45;;;10.40;99.90;;;;;;4969310;28;20050;-76
2022/09/23 07:23:07;;;;;;;10.90;8.07;;;10.50;99.90;;;;;;4972998;28;20026;-76
2022/09/23 07:25:33;;;;;;;13.32;8.48;;;10.50;99.90;;;;;;4971821;28;20089;-76
2022/09/23 07:27:59;;;;;;;13.85;8.65;;;10.50;99.90;;;;;;4971926;28;20102;-76
2022/09/23 07:30:25;;;;;;;11.35;9.35;;;10.60;99.90;;;;;;4971539;28;20545;-76
2022/09/23 07:32:51;;;;;;;14.63;9.23;;;10.60;99.90;;;;;;4969218;28;20410;-76
2022/09/23 07:35:17;;;;;;;12.18;8.35;;;10.60;99.90;;;;;;4984315;28;20042;-76
2022/09/23 07:37:43;;;;;;;11.90;7.68;;;10.70;99.90;;;;;;4971873;28;20030;-77
2022/09/23 07:40:09;;;;;;;15.00;8.05;;;10.80;99.90;;;;;;4972503;28;20038;-76
2022/09/23 07:42:34;;;;;;;12.07;8.05;;;10.80;99.90;;;;;;4971764;28;20031;-76
2022/09/23 07:45:01;;;;;;;11.40;8.27;;;10.90;99.90;;;;;;4972128;28;20102;-76
2022/09/23 07:47:26;;;;;;;12.85;9.07;;;11.00;99.90;;;;;;4970617;28;20114;-76
2022/09/23 07:49:53;;;;;;;10.43;8.00;;;11.10;99.90;;;;;;4972155;28;20446;-76
2022/09/23 07:52:19;;;;;;;10.82;7.88;;;11.10;99.90;;;;;;4971591;28;20484;-76
2022/09/23 07:54:46;;;;;;;9.77;8.55;;;11.20;99.90;;;;;;4971668;28;20031;-76
2022/09/23 07:57:12;;;;;;;12.55;9.13;;;11.20;99.90;;;;;;4972107;28;20041;-76
2022/09/23 07:59:38;;;;;;;13.52;9.07;;;11.30;99.90;;;;;;4971059;28;20030;-76
2022/09/23 08:02:04;;;;;;;12.43;8.90;;;11.40;99.90;;;;;;4971896;28;20031;-76
2022/09/23 08:04:30;;;;;;;12.52;8.30;;;11.50;99.90;;;;;;4971414;28;20046;-76
2022/09/23 08:07:04;;;;;;;12.07;8.25;;;11.60;99.90;;;;;;4971620;28;20093;-76
2022/09/23 08:09:40;;;;;;;12.05;8.27;;;11.70;99.90;;;;;;4971133;28;20056;-77
2022/09/23 08:12:06;;;;;;;12.35;8.70;;;11.80;99.90;;;;;;4987488;28;20494;-76
2022/09/23 08:14:32;;;;;;;9.80;8.18;;;12.00;99.90;;;;;;4972030;28;20039;-76
2022/09/23 08:16:58;;;;;;;12.73;8.07;;;12.10;99.90;;;;;;4970912;28;20122;-76
2022/09/23 08:19:23;;;;;;;12.40;7.60;;;12.30;99.90;;;;;;4969404;28;20023;-76
2022/09/23 08:21:51;;;;;;;10.93;7.78;;;12.50;99.90;;;;;;4971751;28;20094;-76
2022/09/23 08:24:22;;;;;;;13.57;8.15;;;12.60;99.90;;;;;;4971489;28;20545;-76
2022/09/23 08:26:52;;;;;;;11.00;7.93;;;12.80;99.90;;;;;;4972636;28;20058;-76
2022/09/23 08:29:19;;;;;;;14.27;8.25;;;12.90;99.90;;;;;;4970973;28;20046;-76
2022/09/23 08:31:44;;;;;;;9.00;7.57;;;13.20;99.90;;;;;;4969590;28;20027;-76
2022/09/23 08:34:10;;;;;;;10.30;7.80;;;13.40;99.90;;;;;;4985676;28;20092;-76
2022/09/23 08:36:36;;;;;;;10.98;7.93;;;13.50;99.90;;;;;;4970900;28;20403;-76
2022/09/23 08:39:03;;;;;;;17.83;7.60;;;13.70;99.90;;;;;;4970110;28;20027;-77
2022/09/23 08:41:53;;;;;;;11.38;6.88;;;14.00;99.90;;;;;;4968516;28;20509;-76
2022/09/23 08:44:44;;;;;;;11.80;7.30;;;14.20;99.90;;;;;;4970758;28;20085;-76
2022/09/23 08:47:31;;;;;;;13.25;7.60;;;14.30;99.90;;;;;;4971818;28;20109;-76
2022/09/23 08:50:16;;;;;;;12.52;6.65;;;14.50;99.90;;;;;;4971152;28;20089;-76
2022/09/23 08:53:03;;;;;;;12.32;6.93;;;14.50;99.90;;;;;;4969167;28;20029;-76
2022/09/23 08:55:34;;;;;;;9.95;7.32;;;14.60;99.90;;;;;;4970505;28;20035;-77
2022/09/23 08:58:24;;;;;;;11.52;7.05;;;14.60;99.90;;;;;;4970326;28;20035;-76
2022/09/23 09:00:58;;;;;;;10.52;7.25;;;14.60;99.90;;;;;;4962429;28;20058;-76
2022/09/23 09:03:32;;;;;;;9.55;7.35;;;14.60;99.90;;;;;;4970044;28;20443;-76
2022/09/23 09:05:58;;;;;;;10.85;7.25;;;14.70;99.90;;;;;;4969037;28;20034;-77
2022/09/23 09:08:30;;;;;;;9.93;7.80;;;14.80;99.90;;;;;;4970775;28;20033;-77
2022/09/23 09:10:57;;;;;;;16.05;7.85;;;14.90;99.90;;;;;;4971143;28;20036;-76
2022/09/23 09:13:34;;;;;;;11.52;7.95;;;15.00;99.90;;;;;;4971541;28;20027;-74
2022/09/23 09:16:41;;;;;;;11.82;7.53;;;15.10;99.90;;;;;;4969890;28;20038;-74
2022/09/23 09:19:16;;;;;;;12.50;6.57;;;15.20;99.90;;;;;;4964028;28;20054;-73
2022/09/23 09:21:46;;;;;;;8.80;6.32;;;15.40;99.90;;;;;;4971510;28;20054;-74
2022/09/23 09:24:31;;;;;;;10.30;6.55;;;15.50;99.90;;;;;;4969888;28;20030;-77
2022/09/23 09:26:57;;;;;;;10.98;5.80;;;15.60;99.90;;;;;;4965701;28;20058;-77
2022/09/23 09:29:30;;;;;;;13.25;6.00;;;15.60;99.90;;;;;;4961422;28;20027;-76
2022/09/23 09:31:56;;;;;;;9.57;6.30;;;15.70;99.90;;;;;;4964092;28;20030;-76
2022/09/23 09:34:37;;;;;;;10.98;6.25;;;15.80;99.90;;;;;;4965992;28;20463;-76
2022/09/23 09:37:19;;;;;;;10.45;6.45;;;16.00;99.90;;;;;;4970645;28;20506;-76
2022/09/23 09:39:45;;;;;;;12.50;6.32;;;16.00;99.90;;;;;;4964111;28;20030;-76
2022/09/23 09:42:19;;;;;;;9.15;6.22;;;16.00;99.90;;;;;;4965641;28;20378;-76
2022/09/23 09:45:00;;;;;;;12.10;6.20;;;16.10;99.90;;;;;;4972591;28;20050;-75
2022/09/23 09:47:46;;;;;;;9.10;5.78;;;16.10;99.90;;;;;;4972656;28;20097;-76
2022/09/23 09:50:20;;;;;;;7.97;6.47;;;16.20;99.90;;;;;;4967355;28;20042;-76
2022/09/23 09:52:47;;;;;;;9.23;6.28;;;16.20;99.90;;;;;;4969023;28;20022;-75
2022/09/23 09:55:12;;;;;;;9.55;6.53;;;16.30;99.90;;;;;;4970665;28;20037;-76
2022/09/23 09:58:12;;;;;;;9.60;6.72;;;16.40;99.90;;;;;;4970235;28;20022;-76
2022/09/23 10:00:43;;;;;;;10.32;6.70;;;16.50;99.90;;;;;;4960017;28;20054;-75
2022/09/23 10:03:23;;;;;;;8.50;5.78;;;16.60;99.90;;;;;;4972384;28;20078;-73
2022/09/23 10:05:51;;;;;;;12.00;5.85;;;16.70;99.90;;;;;;4973897;28;20045;-75
2022/09/23 10:08:33;;;;;;;7.72;5.72;;;16.90;99.90;;;;;;4985230;28;20047;-76
2022/09/23 10:11:16;;;;;;;10.13;5.63;;;17.10;99.90;;;;;;4964537;28;20034;-75
2022/09/23 10:14:00;;;;;;;;;;;17.20;99.90;;;;;;4975145;28;20068;-75
2022/09/23 10:16:27;;;;;;;9.35;6.13;;;17.20;99.90;;;;;;4971204;28;20369;-75
2022/09/23 10:18:55;;;;;;;7.60;5.30;;;17.30;99.90;;;;;;4970066;28;20372;-75
2022/09/23 10:21:23;;;;;;;8.25;5.65;;;17.40;99.90;;;;;;4960468;28;20069;-75
2022/09/23 10:23:57;;;;;;;8.68;6.28;;;17.50;99.90;;;;;;4965181;28;20041;-76
2022/09/23 10:26:32;;;;;;;9.90;5.57;;;17.60;99.90;;;;;;4971536;28;20042;-75
2022/09/23 10:29:01;;;;;;;9.18;5.70;;;17.70;99.90;;;;;;4970235;28;20423;-75
2022/09/23 10:31:30;;;;;;;12.80;5.38;;;17.90;99.90;;;;;;4969726;28;20042;-75
2022/09/23 10:34:01;;;;;;;9.18;5.40;;;18.00;99.90;;;;;;4970148;28;20027;-75
2022/09/23 10:36:31;;;;;;;7.45;5.63;;;18.10;99.90;;;;;;4972857;28;20459;-75
2022/09/23 10:48:46;;;;;;;8.73;4.70;;;18.60;99.60;;;;;;4971556;28;20382;-75
2022/09/23 10:51:33;;;;;;;12.63;5.00;;;18.60;99.40;;;;;;4970572;28;20746;-76
2022/09/23 10:54:22;;;;;;;8.70;5.15;;;18.60;99.00;;;;;;4984618;28;20360;-75
2022/09/23 10:56:54;;;;;;;8.18;5.07;;;18.80;98.90;;;;;;4963986;28;20047;-75
2022/09/23 10:59:34;;;;;;;9.85;5.55;;;18.90;98.50;;;;;;4965743;28;20290;-75
2022/09/23 11:02:15;;;;;;;6.95;4.97;;;19.00;98.30;;;;;;4971579;28;20082;-75
2022/09/23 11:04:57;;;;;;;7.60;4.65;;;19.00;98.00;;;;;;4971267;28;20102;-75
2022/09/23 11:07:37;;;;;;;9.52;5.40;;;19.10;97.80;;;;;;4973012;28;20467;-75
2022/09/23 11:10:49;;;;;;;9.20;5.80;;;19.20;97.60;;;;;;4974026;28;20464;-74
2022/09/23 11:13:39;;;;;;;9.02;5.53;;;19.40;97.30;;;;;;4972486;28;20031;-75
2022/09/23 11:16:15;;;;;;;12.38;5.80;;;19.40;96.60;;;;;;4971923;28;20065;-75
2022/09/23 11:19:20;;;;;;;9.75;5.15;;;19.40;96.50;;;;;;4971053;28;20035;-75
2022/09/23 11:22:20;;;;;;;11.18;5.47;;;19.50;96.20;;;;;;4956839;28;20043;-75
2022/09/23 11:25:07;;;;;;;11.02;6.00;;;19.60;96.10;;;;;;4963693;28;20035;-75
2022/09/23 11:28:09;;;;;;;11.15;5.70;;;19.60;95.60;;;;;;4968431;28;20034;-75
2022/09/23 11:30:56;;;;;;;11.23;4.82;;;19.60;95.30;;;;;;4984747;28;20505;-75
2022/09/23 11:33:43;;;;;;;10.90;3.83;;;19.60;94.70;;;;;;4972634;28;20078;-75
2022/09/23 11:36:22;;;;;;;7.47;4.10;;;19.60;94.50;;;;;;4969118;28;20039;-75
2022/09/23 11:38:51;;;;;;;8.95;4.25;;;19.60;94.40;;;;;;4973006;28;20026;-75
2022/09/23 11:41:27;;;;;;;7.93;4.00;;;19.70;94.20;;;;;;4972183;28;20037;-75
2022/09/23 11:44:02;;;;;;;8.57;4.13;;;19.70;93.60;;;;;;4970774;28;20037;-75
2022/09/23 11:46:36;;;;;;;9.63;4.43;;;19.70;93.30;;;;;;4972508;28;20545;-75
2022/09/23 11:49:11;;;;;;;7.60;4.03;;;19.70;93.30;;;;;;4972058;28;20015;-75
2022/09/23 11:52:06;;;;;;;11.93;4.78;;;19.90;93.40;;;;;;4972087;28;20039;-75
2022/09/23 11:54:56;;;;;;;9.07;4.03;;;20.00;93.10;;;;;;4971586;28;20375;-76
2022/09/23 11:57:50;;;;;;;8.93;4.43;;;20.10;92.70;;;;;;4973825;28;20034;-75
2022/09/23 12:00:21;;;;;;;12.65;4.28;;;20.10;92.70;;;;;;4953913;28;20023;-76
2022/09/23 12:03:17;;;;;;;7.90;4.40;;;20.20;92.30;;;;;;4957847;28;20029;-75
2022/09/23 12:05:50;;;;;;;9.15;4.65;;;20.10;91.90;;;;;;4966532;28;20041;-76
2022/09/23 12:08:29;;;;;;;10.68;4.82;;;20.10;91.80;;;;;;4972369;28;20114;-75
2022/09/23 12:11:27;;;;;;;6.78;4.13;;;20.10;91.80;;;;;;4971542;28;20022;-75
2022/09/23 12:14:10;;;;;;;8.50;3.90;;;20.10;91.80;;;;;;4970889;28;20031;-75
2022/09/23 12:17:03;;;;;;;7.13;3.85;;;20.10;91.60;;;;;;4973364;28;20041;-75
2022/09/23 12:19:46;;;;;;;5.78;3.85;;;20.10;91.50;;;;;;4969244;28;20030;-75
2022/09/23 12:22:29;;;;;;;6.03;4.05;;;20.10;91.40;;;;;;4972000;28;20035;-75
2022/09/23 12:25:19;;;;;;;6.57;3.80;;;20.20;91.10;;;;;;4972440;28;20033;-75
2022/09/23 12:27:49;;;;;;;4.97;2.92;;;20.20;90.90;;;;;;4972851;28;20023;-75
2022/09/23 12:30:20;;;;;;;6.93;3.22;;;20.20;90.60;;;;;;4971520;28;20062;-75
2022/09/23 12:32:46;;;;;;;8.43;3.15;;;20.20;90.60;;;;;;4970569;28;20113;-76
2022/09/23 12:35:23;;;;;;;7.72;3.00;;;20.20;90.50;;;;;;4968074;28;20566;-75
2022/09/23 12:37:49;;;;;;;7.32;3.28;;;20.30;90.20;;;;;;4985564;28;20042;-75
2022/09/23 12:40:43;;;;;;;7.05;2.70;;;20.20;89.80;;;;;;4968981;28;20125;-75
2022/09/23 12:43:28;;;;;;;5.43;3.13;;;20.20;89.20;;;;;;4986562;28;20030;-75
2022/09/23 12:46:16;;;;;;;6.88;2.42;;;20.20;89.10;;;;;;4971306;28;20031;-75
2022/09/23 12:48:47;;;;;;;5.50;2.65;;;20.20;89.00;;;;;;4969259;28;20042;-75
2022/09/23 12:51:18;;;;;;;5.38;2.45;;;20.20;89.00;;;;;;4970224;28;20038;-75
2022/09/23 12:54:09;;;;;;;5.43;2.47;;;20.30;89.20;;;;;;4971801;28;20031;-75
2022/09/23 12:56:38;;;;;;;5.60;3.10;;;20.30;89.00;;;;;;4967004;28;20082;-75
2022/09/23 12:59:21;;;;;;;4.65;2.08;;;20.40;88.40;;;;;;4971956;28;20035;-75
2022/09/23 13:01:47;;;;;;;4.85;2.25;;;20.40;88.00;;;;;;4969606;28;20027;-76
2022/09/23 13:07:28;;;;;;;5.40;2.22;;;20.40;87.10;;;;;;4965012;28;20122;-75
2022/09/23 13:10:12;;;;;;;5.15;2.53;;;20.30;87.20;;;;;;4972965;28;20031;-75
2022/09/23 13:12:40;;;;;;;3.90;2.42;;;20.30;87.20;;;;;;4973049;28;20110;-75
2022/09/23 13:15:16;;;;;;;5.03;2.40;;;20.30;87.00;;;;;;4973065;28;20043;-75
2022/09/23 13:17:42;;;;;;;3.38;1.90;;;20.20;87.40;;;;;;4973022;28;20445;-75
2022/09/23 13:20:19;;;;;;;4.10;1.55;;;20.20;86.40;;;;;;4975369;28;20150;-75
2022/09/23 13:22:48;;;;;;;6.30;2.03;;;20.20;86.60;;;;;;4975313;28;20026;-75
2022/09/23 13:25:24;;;;;;;2.88;1.73;;;20.20;86.60;;;;;;4973891;28;20026;-76